sensor_id;sensor_type;location;lat;lon;timestamp;pressure;altitude;pressure_sealevel;temperature;humidity
61568;BME280;47462;59.172;17.196;2022-08-21T00:00:41;100834.88;;;17.05;70.91
61568;BME280;47462;59.172;17.196;2022-08-21T00:03:08;100839.50;;;17.00;71.15
61568;BME280;47462;59.172;17.196;2022-08-21T00:05:38;100836.97;;;16.98;71.14
61568;BME280;47462;59.172;17.196;2022-08-21T00:08:04;100836.44;;;16.91;71.25
61568;BME280;47462;59.172;17.196;2022-08-21T00:10:30;100842.47;;;16.93;71.14
61568;BME280;47462;59.172;17.196;2022-08-21T00:12:55;100835.09;;;16.83;71.45
61568;BME280;47462;59.172;17.196;2022-08-21T00:15:25;100830.00;;;16.80;71.59
61568;BME280;47462;59.172;17.196;2022-08-21T00:17:54;100824.03;;;16.76;71.79
61568;BME280;47462;59.172;17.196;2022-08-21T00:20:21;100830.16;;;16.76;71.65
61568;BME280;47462;59.172;17.196;2022-08-21T00:22:46;100847.78;;;16.76;71.24
61568;BME280;47462;59.172;17.196;2022-08-21T00:25:12;100846.44;;;16.67;71.48
61568;BME280;47462;59.172;17.196;2022-08-21T00:27:37;100838.25;;;16.56;71.42
61568;BME280;47462;59.172;17.196;2022-08-21T00:30:04;100854.00;;;16.57;71.64
61568;BME280;47462;59.172;17.196;2022-08-21T00:32:30;100854.91;;;16.56;71.80
61568;BME280;47462;59.172;17.196;2022-08-21T00:34:55;100849.97;;;16.50;71.90
61568;BME280;47462;59.172;17.196;2022-08-21T00:37:22;100839.91;;;16.41;72.36
61568;BME280;47462;59.172;17.196;2022-08-21T00:39:47;100844.31;;;16.40;72.47
61568;BME280;47462;59.172;17.196;2022-08-21T00:42:14;100834.88;;;16.36;72.33
61568;BME280;47462;59.172;17.196;2022-08-21T00:44:44;100852.31;;;16.39;72.66
61568;BME280;47462;59.172;17.196;2022-08-21T00:47:10;100833.63;;;16.26;72.30
61568;BME280;47462;59.172;17.196;2022-08-21T00:49:36;100847.50;;;16.30;72.39
61568;BME280;47462;59.172;17.196;2022-08-21T00:52:03;100836.09;;;16.29;72.46
61568;BME280;47462;59.172;17.196;2022-08-21T00:54:31;100834.41;;;16.28;72.79
61568;BME280;47462;59.172;17.196;2022-08-21T00:56:59;100837.13;;;16.27;73.34
61568;BME280;47462;59.172;17.196;2022-08-21T00:59:25;100827.66;;;16.22;73.67
61568;BME280;47462;59.172;17.196;2022-08-21T01:02:02;100808.84;;;16.13;73.27
61568;BME280;47462;59.172;17.196;2022-08-21T01:04:29;100801.19;;;16.08;73.76
61568;BME280;47462;59.172;17.196;2022-08-21T01:06:55;100822.09;;;16.11;74.03
61568;BME280;47462;59.172;17.196;2022-08-21T01:09:20;100824.97;;;16.07;74.33
61568;BME280;47462;59.172;17.196;2022-08-21T01:11:46;100820.00;;;16.00;74.40
61568;BME280;47462;59.172;17.196;2022-08-21T01:14:12;100807.22;;;15.93;74.21
61568;BME280;47462;59.172;17.196;2022-08-21T01:16:43;100803.78;;;15.91;74.43
61568;BME280;47462;59.172;17.196;2022-08-21T01:19:09;100819.28;;;15.97;74.53
61568;BME280;47462;59.172;17.196;2022-08-21T01:21:36;100785.81;;;15.81;74.57
61568;BME280;47462;59.172;17.196;2022-08-21T01:24:02;100809.34;;;15.84;74.66
61568;BME280;47462;59.172;17.196;2022-08-21T01:26:32;100806.09;;;15.79;74.47
61568;BME280;47462;59.172;17.196;2022-08-21T01:29:09;100807.81;;;15.80;74.49
61568;BME280;47462;59.172;17.196;2022-08-21T01:31:38;100808.66;;;15.81;75.26
61568;BME280;47462;59.172;17.196;2022-08-21T01:34:04;100797.84;;;15.68;75.43
61568;BME280;47462;59.172;17.196;2022-08-21T01:36:31;100813.09;;;15.80;75.94
61568;BME280;47462;59.172;17.196;2022-08-21T01:38:57;100813.09;;;15.80;75.91
61568;BME280;47462;59.172;17.196;2022-08-21T01:41:22;100819.19;;;15.81;75.96
61568;BME280;47462;59.172;17.196;2022-08-21T01:43:48;100808.81;;;15.78;75.89
61568;BME280;47462;59.172;17.196;2022-08-21T01:46:13;100809.66;;;15.78;75.79
61568;BME280;47462;59.172;17.196;2022-08-21T01:48:39;100812.22;;;15.80;75.68
61568;BME280;47462;59.172;17.196;2022-08-21T01:51:05;100812.94;;;15.83;75.70
61568;BME280;47462;59.172;17.196;2022-08-21T01:53:31;100803.19;;;15.85;75.77
61568;BME280;47462;59.172;17.196;2022-08-21T01:55:59;100801.47;;;15.84;75.84
61568;BME280;47462;59.172;17.196;2022-08-21T01:58:24;100805.66;;;15.89;75.81
61568;BME280;47462;59.172;17.196;2022-08-21T02:00:49;100807.53;;;15.86;76.12
61568;BME280;47462;59.172;17.196;2022-08-21T02:03:15;100814.47;;;15.87;76.11
61568;BME280;47462;59.172;17.196;2022-08-21T02:05:40;100823.31;;;15.86;76.18
61568;BME280;47462;59.172;17.196;2022-08-21T02:08:06;100822.38;;;15.87;76.42
61568;BME280;47462;59.172;17.196;2022-08-21T02:10:32;100817.97;;;15.88;76.28
61568;BME280;47462;59.172;17.196;2022-08-21T02:12:58;100801.53;;;15.83;76.26
61568;BME280;47462;59.172;17.196;2022-08-21T02:15:26;100810.00;;;15.90;76.05
61568;BME280;47462;59.172;17.196;2022-08-21T02:17:55;100810.78;;;15.92;75.90
61568;BME280;47462;59.172;17.196;2022-08-21T02:20:28;100797.00;;;15.86;76.17
61568;BME280;47462;59.172;17.196;2022-08-21T02:22:54;100786.78;;;15.80;76.21
61568;BME280;47462;59.172;17.196;2022-08-21T02:25:21;100802.25;;;15.86;76.13
61568;BME280;47462;59.172;17.196;2022-08-21T02:27:47;100814.16;;;15.94;76.38
61568;BME280;47462;59.172;17.196;2022-08-21T02:30:23;100800.31;;;15.90;76.11
61568;BME280;47462;59.172;17.196;2022-08-21T02:32:49;100783.47;;;15.75;76.31
61568;BME280;47462;59.172;17.196;2022-08-21T02:35:15;100822.13;;;15.92;76.52
61568;BME280;47462;59.172;17.196;2022-08-21T02:37:50;100827.56;;;15.89;76.65
61568;BME280;47462;59.172;17.196;2022-08-21T02:40:20;100802.09;;;15.90;76.52
61568;BME280;47462;59.172;17.196;2022-08-21T02:42:46;100799.78;;;15.83;77.09
61568;BME280;47462;59.172;17.196;2022-08-21T02:45:13;100800.53;;;15.85;77.45
61568;BME280;47462;59.172;17.196;2022-08-21T02:47:39;100795.44;;;15.82;77.73
61568;BME280;47462;59.172;17.196;2022-08-21T02:50:07;100802.25;;;15.86;77.87
61568;BME280;47462;59.172;17.196;2022-08-21T02:52:33;100787.88;;;15.75;77.98
61568;BME280;47462;59.172;17.196;2022-08-21T02:54:59;100775.78;;;15.70;78.05
61568;BME280;47462;59.172;17.196;2022-08-21T02:57:24;100784.31;;;15.76;78.08
61568;BME280;47462;59.172;17.196;2022-08-21T02:59:50;100787.31;;;15.68;78.10
61568;BME280;47462;59.172;17.196;2022-08-21T03:02:15;100776.47;;;15.57;78.29
61568;BME280;47462;59.172;17.196;2022-08-21T03:04:40;100793.03;;;15.59;78.39
61568;BME280;47462;59.172;17.196;2022-08-21T03:07:06;100789.63;;;15.57;78.55
61568;BME280;47462;59.172;17.196;2022-08-21T03:09:31;100781.25;;;15.48;78.30
61568;BME280;47462;59.172;17.196;2022-08-21T03:11:56;100789.00;;;15.51;78.22
61568;BME280;47462;59.172;17.196;2022-08-21T03:14:22;100776.44;;;15.39;78.42
61568;BME280;47462;59.172;17.196;2022-08-21T03:16:48;100786.81;;;15.42;78.52
61568;BME280;47462;59.172;17.196;2022-08-21T03:19:13;100797.19;;;15.45;78.48
61568;BME280;47462;59.172;17.196;2022-08-21T03:21:39;100758.13;;;15.19;78.38
61568;BME280;47462;59.172;17.196;2022-08-21T03:24:04;100786.38;;;15.32;78.10
61568;BME280;47462;59.172;17.196;2022-08-21T03:26:30;100807.06;;;15.40;78.27
61568;BME280;47462;59.172;17.196;2022-08-21T03:28:56;100804.44;;;15.40;78.38
61568;BME280;47462;59.172;17.196;2022-08-21T03:31:23;100794.34;;;15.31;78.56
61568;BME280;47462;59.172;17.196;2022-08-21T03:33:48;100800.53;;;15.30;78.79
61568;BME280;47462;59.172;17.196;2022-08-21T03:36:15;100805.66;;;15.33;78.92
61568;BME280;47462;59.172;17.196;2022-08-21T03:38:40;100787.91;;;15.19;78.75
61568;BME280;47462;59.172;17.196;2022-08-21T03:41:07;100804.78;;;15.32;78.74
61568;BME280;47462;59.172;17.196;2022-08-21T03:43:32;100779.94;;;15.21;78.87
61568;BME280;47462;59.172;17.196;2022-08-21T03:46:00;100802.38;;;15.28;78.75
61568;BME280;47462;59.172;17.196;2022-08-21T03:48:25;100794.78;;;15.22;78.79
61568;BME280;47462;59.172;17.196;2022-08-21T03:50:52;100791.38;;;15.20;78.79
61568;BME280;47462;59.172;17.196;2022-08-21T03:53:17;100792.22;;;15.20;78.99
61568;BME280;47462;59.172;17.196;2022-08-21T03:55:47;100800.03;;;15.22;79.11
61568;BME280;47462;59.172;17.196;2022-08-21T03:58:15;100803.47;;;15.24;79.29
61568;BME280;47462;59.172;17.196;2022-08-21T04:00:40;100789.94;;;15.12;79.17
61568;BME280;47462;59.172;17.196;2022-08-21T04:03:09;100758.41;;;14.93;79.35
61568;BME280;47462;59.172;17.196;2022-08-21T04:05:34;100806.22;;;15.21;79.55
61568;BME280;47462;59.172;17.196;2022-08-21T04:08:03;100805.28;;;15.22;79.78
61568;BME280;47462;59.172;17.196;2022-08-21T04:10:31;100791.50;;;15.16;79.79
61568;BME280;47462;59.172;17.196;2022-08-21T04:12:57;100795.88;;;15.18;79.90
61568;BME280;47462;59.172;17.196;2022-08-21T04:15:24;100787.25;;;15.14;79.79
61568;BME280;47462;59.172;17.196;2022-08-21T04:17:50;100800.91;;;15.22;79.46
61568;BME280;47462;59.172;17.196;2022-08-21T04:20:17;100814.75;;;15.26;79.89
61568;BME280;47462;59.172;17.196;2022-08-21T04:22:43;100795.94;;;15.16;80.08
61568;BME280;47462;59.172;17.196;2022-08-21T04:25:11;100803.47;;;15.24;80.05
61568;BME280;47462;59.172;17.196;2022-08-21T04:27:36;100807.56;;;15.29;79.86
61568;BME280;47462;59.172;17.196;2022-08-21T04:30:03;100800.63;;;15.28;80.06
61568;BME280;47462;59.172;17.196;2022-08-21T04:32:29;100801.59;;;15.26;79.88
61568;BME280;47462;59.172;17.196;2022-08-21T04:35:06;100781.78;;;15.19;80.04
61568;BME280;47462;59.172;17.196;2022-08-21T04:37:34;100817.09;;;15.32;79.99
61568;BME280;47462;59.172;17.196;2022-08-21T04:39:59;100807.13;;;15.39;80.02
61568;BME280;47462;59.172;17.196;2022-08-21T04:42:28;100801.03;;;15.38;80.00
61568;BME280;47462;59.172;17.196;2022-08-21T04:44:55;100803.50;;;15.41;80.18
61568;BME280;47462;59.172;17.196;2022-08-21T04:47:21;100800.88;;;15.41;80.13
61568;BME280;47462;59.172;17.196;2022-08-21T04:49:48;100807.72;;;15.45;80.08
61568;BME280;47462;59.172;17.196;2022-08-21T04:52:15;100817.94;;;15.51;80.20
61568;BME280;47462;59.172;17.196;2022-08-21T04:54:43;100797.41;;;15.41;80.25
61568;BME280;47462;59.172;17.196;2022-08-21T04:57:10;100802.31;;;15.48;80.18
61568;BME280;47462;59.172;17.196;2022-08-21T04:59:46;100807.19;;;15.56;80.19
61568;BME280;47462;59.172;17.196;2022-08-21T05:02:13;100817.19;;;15.67;80.09
61568;BME280;47462;59.172;17.196;2022-08-21T05:04:46;100823.91;;;15.73;80.16
61568;BME280;47462;59.172;17.196;2022-08-21T05:07:18;100809.78;;;15.75;80.04
61568;BME280;47462;59.172;17.196;2022-08-21T05:09:45;100822.94;;;15.94;79.74
61568;BME280;47462;59.172;17.196;2022-08-21T05:12:11;100817.44;;;15.99;79.59
61568;BME280;47462;59.172;17.196;2022-08-21T05:14:37;100816.81;;;16.11;79.56
61568;BME280;47462;59.172;17.196;2022-08-21T05:17:03;100823.47;;;16.18;78.92
61568;BME280;47462;59.172;17.196;2022-08-21T05:19:29;100818.84;;;16.23;78.78
61568;BME280;47462;59.172;17.196;2022-08-21T05:21:54;100818.75;;;16.25;78.63
61568;BME280;47462;59.172;17.196;2022-08-21T05:24:20;100821.16;;;16.30;78.83
61568;BME280;47462;59.172;17.196;2022-08-21T05:26:49;100812.00;;;16.37;78.77
61568;BME280;47462;59.172;17.196;2022-08-21T05:29:16;100809.84;;;16.45;78.85
61568;BME280;47462;59.172;17.196;2022-08-21T05:31:42;100808.13;;;16.44;78.47
61568;BME280;47462;59.172;17.196;2022-08-21T05:34:07;100811.16;;;16.54;78.49
61568;BME280;47462;59.172;17.196;2022-08-21T05:36:33;100790.16;;;16.52;78.28
61568;BME280;47462;59.172;17.196;2022-08-21T05:38:59;100808.72;;;16.67;78.18
61568;BME280;47462;59.172;17.196;2022-08-21T05:41:24;100778.00;;;16.50;77.88
61568;BME280;47462;59.172;17.196;2022-08-21T05:43:50;100795.38;;;16.70;77.80
61568;BME280;47462;59.172;17.196;2022-08-21T05:46:15;100800.25;;;16.77;77.51
61568;BME280;47462;59.172;17.196;2022-08-21T05:48:41;100796.69;;;16.79;77.49
61568;BME280;47462;59.172;17.196;2022-08-21T05:51:13;100786.06;;;16.80;77.50
61568;BME280;47462;59.172;17.196;2022-08-21T05:53:40;100787.91;;;16.96;77.54
61568;BME280;47462;59.172;17.196;2022-08-21T05:56:07;100794.34;;;17.06;77.07
61568;BME280;47462;59.172;17.196;2022-08-21T05:58:33;100797.06;;;17.04;76.43
61568;BME280;47462;59.172;17.196;2022-08-21T06:01:01;100789.88;;;17.08;76.57
61568;BME280;47462;59.172;17.196;2022-08-21T06:03:31;100774.31;;;17.03;76.22
61568;BME280;47462;59.172;17.196;2022-08-21T06:05:56;100784.59;;;17.08;76.81
61568;BME280;47462;59.172;17.196;2022-08-21T06:08:22;100787.06;;;17.11;76.65
61568;BME280;47462;59.172;17.196;2022-08-21T06:10:49;100777.53;;;17.08;76.58
61568;BME280;47462;59.172;17.196;2022-08-21T06:13:17;100783.66;;;17.09;76.64
61568;BME280;47462;59.172;17.196;2022-08-21T06:15:44;100787.50;;;17.19;77.08
61568;BME280;47462;59.172;17.196;2022-08-21T06:18:10;100784.34;;;17.28;77.13
61568;BME280;47462;59.172;17.196;2022-08-21T06:20:36;100788.34;;;17.36;76.77
61568;BME280;47462;59.172;17.196;2022-08-21T06:23:03;100781.97;;;17.40;76.45
61568;BME280;47462;59.172;17.196;2022-08-21T06:25:29;100788.41;;;17.50;76.15
61568;BME280;47462;59.172;17.196;2022-08-21T06:28:00;100798.97;;;17.50;76.13
61568;BME280;47462;59.172;17.196;2022-08-21T06:30:25;100775.47;;;17.45;75.98
61568;BME280;47462;59.172;17.196;2022-08-21T06:32:51;100796.69;;;17.60;75.83
61568;BME280;47462;59.172;17.196;2022-08-21T06:35:16;100790.34;;;17.62;76.03
61568;BME280;47462;59.172;17.196;2022-08-21T06:37:41;100795.19;;;17.70;75.93
61568;BME280;47462;59.172;17.196;2022-08-21T06:40:08;100783.63;;;17.73;75.99
61568;BME280;47462;59.172;17.196;2022-08-21T06:42:33;100787.44;;;17.83;76.09
61568;BME280;47462;59.172;17.196;2022-08-21T06:44:59;100787.72;;;17.78;75.92
61568;BME280;47462;59.172;17.196;2022-08-21T06:47:24;100786.59;;;17.82;75.35
61568;BME280;47462;59.172;17.196;2022-08-21T06:49:50;100797.72;;;17.88;75.29
61568;BME280;47462;59.172;17.196;2022-08-21T06:52:15;100781.97;;;17.86;75.10
61568;BME280;47462;59.172;17.196;2022-08-21T06:54:41;100788.56;;;17.95;75.16
61568;BME280;47462;59.172;17.196;2022-08-21T06:57:06;100773.13;;;17.87;74.58
61568;BME280;47462;59.172;17.196;2022-08-21T07:02:10;100773.81;;;17.91;74.44
61568;BME280;47462;59.172;17.196;2022-08-21T07:04:36;100761.28;;;17.94;74.50
61568;BME280;47462;59.172;17.196;2022-08-21T07:07:01;100777.94;;;18.11;74.38
61568;BME280;47462;59.172;17.196;2022-08-21T07:09:27;100747.81;;;17.99;74.68
61568;BME280;47462;59.172;17.196;2022-08-21T07:11:53;100777.56;;;18.17;74.66
61568;BME280;47462;59.172;17.196;2022-08-21T07:14:20;100763.88;;;18.10;74.60
61568;BME280;47462;59.172;17.196;2022-08-21T07:16:49;100776.53;;;18.20;74.35
61568;BME280;47462;59.172;17.196;2022-08-21T07:19:16;100774.56;;;18.23;74.10
61568;BME280;47462;59.172;17.196;2022-08-21T07:21:45;100753.41;;;18.09;73.97
61568;BME280;47462;59.172;17.196;2022-08-21T07:24:12;100782.31;;;18.26;73.80
61568;BME280;47462;59.172;17.196;2022-08-21T07:26:41;100739.94;;;18.13;73.61
61568;BME280;47462;59.172;17.196;2022-08-21T07:29:17;100779.84;;;18.38;73.41
61568;BME280;47462;59.172;17.196;2022-08-21T07:31:53;100780.06;;;18.49;73.13
61568;BME280;47462;59.172;17.196;2022-08-21T07:34:18;100772.16;;;18.49;72.91
61568;BME280;47462;59.172;17.196;2022-08-21T07:36:43;100773.66;;;18.53;72.96
61568;BME280;47462;59.172;17.196;2022-08-21T07:39:09;100761.25;;;18.39;72.72
61568;BME280;47462;59.172;17.196;2022-08-21T07:41:35;100775.25;;;18.41;72.64
61568;BME280;47462;59.172;17.196;2022-08-21T07:44:00;100776.09;;;18.42;72.86
61568;BME280;47462;59.172;17.196;2022-08-21T07:46:26;100769.59;;;18.47;72.87
61568;BME280;47462;59.172;17.196;2022-08-21T07:48:52;100759.88;;;18.62;73.29
61568;BME280;47462;59.172;17.196;2022-08-21T07:51:20;100766.00;;;18.63;72.72
61568;BME280;47462;59.172;17.196;2022-08-21T07:53:52;100741.97;;;18.53;72.36
61568;BME280;47462;59.172;17.196;2022-08-21T07:56:19;100717.88;;;18.58;71.14
61568;BME280;47462;59.172;17.196;2022-08-21T07:58:47;100762.72;;;18.88;70.86
61568;BME280;47462;59.172;17.196;2022-08-21T08:01:13;100769.91;;;18.86;70.63
61568;BME280;47462;59.172;17.196;2022-08-21T08:03:40;100775.06;;;19.02;70.13
61568;BME280;47462;59.172;17.196;2022-08-21T08:06:07;100763.88;;;19.25;70.42
61568;BME280;47462;59.172;17.196;2022-08-21T08:08:44;100696.69;;;19.01;69.45
61568;BME280;47462;59.172;17.196;2022-08-21T08:11:11;100767.16;;;19.43;68.69
61568;BME280;47462;59.172;17.196;2022-08-21T08:13:42;100728.06;;;19.20;68.56
61568;BME280;47462;59.172;17.196;2022-08-21T08:16:18;100767.25;;;19.42;67.97
61568;BME280;47462;59.172;17.196;2022-08-21T08:18:44;100772.75;;;19.39;68.45
61568;BME280;47462;59.172;17.196;2022-08-21T08:21:12;100747.91;;;19.27;68.07
61568;BME280;47462;59.172;17.196;2022-08-21T08:23:38;100768.69;;;19.33;68.03
61568;BME280;47462;59.172;17.196;2022-08-21T08:26:11;100771.88;;;19.38;68.44
61568;BME280;47462;59.172;17.196;2022-08-21T08:28:38;100765.09;;;19.34;68.34
61568;BME280;47462;59.172;17.196;2022-08-21T08:31:03;100768.69;;;19.33;68.27
61568;BME280;47462;59.172;17.196;2022-08-21T08:33:29;100759.72;;;19.36;67.58
61568;BME280;47462;59.172;17.196;2022-08-21T08:35:55;100761.28;;;19.38;67.73
61568;BME280;47462;59.172;17.196;2022-08-21T08:38:20;100765.13;;;19.47;68.15
61568;BME280;47462;59.172;17.196;2022-08-21T08:40:58;100765.03;;;19.49;67.79
61568;BME280;47462;59.172;17.196;2022-08-21T08:43:30;100767.69;;;19.49;67.28
61568;BME280;47462;59.172;17.196;2022-08-21T08:45:57;100770.66;;;19.57;67.18
61568;BME280;47462;59.172;17.196;2022-08-21T08:50:56;100762.78;;;19.70;66.46
61568;BME280;47462;59.172;17.196;2022-08-21T08:53:24;100765.88;;;19.76;66.08
61568;BME280;47462;59.172;17.196;2022-08-21T08:55:52;100775.66;;;19.89;65.80
61568;BME280;47462;59.172;17.196;2022-08-21T08:58:26;100767.56;;;20.05;65.42
61568;BME280;47462;59.172;17.196;2022-08-21T09:00:52;100765.75;;;20.18;65.06
61568;BME280;47462;59.172;17.196;2022-08-21T09:03:19;100650.28;;;19.50;63.73
61568;BME280;47462;59.172;17.196;2022-08-21T09:05:47;100767.25;;;20.22;63.39
61568;BME280;47462;59.172;17.196;2022-08-21T09:13:48;100779.88;;;20.57;62.16
61568;BME280;47462;59.172;17.196;2022-08-21T09:21:58;100780.41;;;20.88;61.84
61568;BME280;47462;59.172;17.196;2022-08-21T09:27:11;100766.41;;;20.86;60.00
61568;BME280;47462;59.172;17.196;2022-08-21T09:29:37;100757.63;;;20.73;58.69
61568;BME280;47462;59.172;17.196;2022-08-21T09:32:04;100756.13;;;20.56;57.38
61568;BME280;47462;59.172;17.196;2022-08-21T09:34:34;100759.00;;;20.53;56.69
61568;BME280;47462;59.172;17.196;2022-08-21T09:37:01;100759.28;;;20.61;56.46
61568;BME280;47462;59.172;17.196;2022-08-21T09:39:29;100763.03;;;20.71;56.05
61568;BME280;47462;59.172;17.196;2022-08-21T09:41:57;100765.34;;;20.76;56.19
61568;BME280;47462;59.172;17.196;2022-08-21T09:44:27;100757.28;;;20.77;55.08
61568;BME280;47462;59.172;17.196;2022-08-21T09:46:53;100756.03;;;20.83;55.25
61568;BME280;47462;59.172;17.196;2022-08-21T09:49:33;100757.53;;;21.11;55.23
61568;BME280;47462;59.172;17.196;2022-08-21T09:51:59;100764.16;;;21.30;54.24
61568;BME280;47462;59.172;17.196;2022-08-21T09:54:31;100761.72;;;21.27;53.62
61568;BME280;47462;59.172;17.196;2022-08-21T09:56:59;100765.84;;;21.31;53.13
61568;BME280;47462;59.172;17.196;2022-08-21T09:59:45;100776.63;;;21.53;52.91
61568;BME280;47462;59.172;17.196;2022-08-21T10:02:30;100770.97;;;21.58;52.19
61568;BME280;47462;59.172;17.196;2022-08-21T10:05:00;100771.84;;;21.70;51.83
61568;BME280;47462;59.172;17.196;2022-08-21T10:07:28;100763.13;;;21.92;52.03
61568;BME280;47462;59.172;17.196;2022-08-21T10:10:09;100763.00;;;21.94;51.54
61568;BME280;47462;59.172;17.196;2022-08-21T10:12:45;100764.78;;;21.82;51.12
61568;BME280;47462;59.172;17.196;2022-08-21T10:25:52;100769.13;;;22.30;50.20
61568;BME280;47462;59.172;17.196;2022-08-21T10:28:30;100766.09;;;22.23;48.57
61568;BME280;47462;59.172;17.196;2022-08-21T10:36:16;100756.38;;;22.46;48.35
61568;BME280;47462;59.172;17.196;2022-08-21T10:49:14;100750.31;;;23.23;47.44
61568;BME280;47462;59.172;17.196;2022-08-21T10:51:49;100750.31;;;23.12;45.70
61568;BME280;47462;59.172;17.196;2022-08-21T10:54:21;100752.09;;;23.00;45.78
61568;BME280;47462;59.172;17.196;2022-08-21T10:56:51;100758.91;;;22.93;44.93
61568;BME280;47462;59.172;17.196;2022-08-21T11:04:17;100755.38;;;22.92;44.84
61568;BME280;47462;59.172;17.196;2022-08-21T11:07:00;100755.88;;;22.86;44.11
61568;BME280;47462;59.172;17.196;2022-08-21T11:09:30;100750.44;;;22.88;44.36
61568;BME280;47462;59.172;17.196;2022-08-21T11:11:58;100746.44;;;22.93;43.84
61568;BME280;47462;59.172;17.196;2022-08-21T11:17:12;100738.50;;;22.82;43.74
61568;BME280;47462;59.172;17.196;2022-08-21T11:19:50;100741.16;;;22.82;43.76
61568;BME280;47462;59.172;17.196;2022-08-21T11:22:25;100744.06;;;22.79;43.15
61568;BME280;47462;59.172;17.196;2022-08-21T11:27:26;100751.19;;;23.12;42.55
61568;BME280;47462;59.172;17.196;2022-08-21T11:29:57;100753.22;;;23.20;42.28
61568;BME280;47462;59.172;17.196;2022-08-21T11:36:02;100741.06;;;23.39;42.18
61568;BME280;47462;59.172;17.196;2022-08-21T11:38:20;100750.94;;;23.48;43.13
61568;BME280;47462;59.172;17.196;2022-08-21T11:45:52;100751.44;;;23.74;42.96
61568;BME280;47462;59.172;17.196;2022-08-21T11:51:04;100745.69;;;23.90;43.34
61568;BME280;47462;59.172;17.196;2022-08-21T11:56:10;100730.84;;;24.39;43.42
61568;BME280;47462;59.172;17.196;2022-08-21T11:58:48;100731.78;;;24.60;43.78
61568;BME280;47462;59.172;17.196;2022-08-21T12:01:19;100731.81;;;24.69;43.33
61568;BME280;47462;59.172;17.196;2022-08-21T12:03:58;100739.16;;;24.56;43.34
61568;BME280;47462;59.172;17.196;2022-08-21T12:06:35;100739.00;;;24.48;42.77
61568;BME280;47462;59.172;17.196;2022-08-21T12:09:04;100750.41;;;24.29;42.95
61568;BME280;47462;59.172;17.196;2022-08-21T12:11:45;100743.13;;;24.31;42.48
61568;BME280;47462;59.172;17.196;2022-08-21T12:14:18;100740.16;;;24.55;42.50
61568;BME280;47462;59.172;17.196;2022-08-21T12:16:48;100747.00;;;24.79;42.16
61568;BME280;47462;59.172;17.196;2022-08-21T12:27:46;100736.31;;;24.69;39.17
61568;BME280;47462;59.172;17.196;2022-08-21T12:30:20;100732.56;;;24.81;39.09
61568;BME280;47462;59.172;17.196;2022-08-21T12:32:53;100730.03;;;24.80;38.52
61568;BME280;47462;59.172;17.196;2022-08-21T12:35:40;100736.91;;;24.82;38.56
61568;BME280;47462;59.172;17.196;2022-08-21T12:40:55;100726.16;;;25.03;38.42
61568;BME280;47462;59.172;17.196;2022-08-21T12:43:33;100732.22;;;25.15;37.44
61568;BME280;47462;59.172;17.196;2022-08-21T12:45:59;100722.63;;;25.03;36.70
61568;BME280;47462;59.172;17.196;2022-08-21T12:48:47;100724.63;;;25.10;36.38
61568;BME280;47462;59.172;17.196;2022-08-21T12:51:24;100725.25;;;25.34;36.67
61568;BME280;47462;59.172;17.196;2022-08-21T12:53:52;100724.94;;;25.46;36.95
61568;BME280;47462;59.172;17.196;2022-08-21T12:56:25;100726.94;;;25.64;36.78
61568;BME280;47462;59.172;17.196;2022-08-21T12:59:05;100721.03;;;25.51;34.15
61568;BME280;47462;59.172;17.196;2022-08-21T13:01:48;100719.91;;;25.53;33.25
61568;BME280;47462;59.172;17.196;2022-08-21T13:04:56;100717.31;;;25.91;32.91
61568;BME280;47462;59.172;17.196;2022-08-21T13:08:07;100722.03;;;26.26;32.84
61568;BME280;47462;59.172;17.196;2022-08-21T13:12:38;100718.50;;;26.73;32.76
61568;BME280;47462;59.172;17.196;2022-08-21T13:15:06;100717.31;;;26.85;33.05
61568;BME280;47462;59.172;17.196;2022-08-21T13:17:34;100721.84;;;27.21;33.18
61568;BME280;47462;59.172;17.196;2022-08-21T13:20:09;100718.75;;;27.44;33.12
61568;BME280;47462;59.172;17.196;2022-08-21T13:22:42;100722.03;;;27.55;33.32
61568;BME280;47462;59.172;17.196;2022-08-21T13:25:12;100723.72;;;27.56;33.26
61568;BME280;47462;59.172;17.196;2022-08-21T13:27:38;100711.47;;;27.54;32.85
61568;BME280;47462;59.172;17.196;2022-08-21T13:30:13;100708.50;;;27.57;32.58
61568;BME280;47462;59.172;17.196;2022-08-21T13:32:43;100715.06;;;27.27;32.53
61568;BME280;47462;59.172;17.196;2022-08-21T13:35:14;100706.38;;;27.15;32.68
61568;BME280;47462;59.172;17.196;2022-08-21T13:37:44;100710.53;;;27.27;34.11
61568;BME280;47462;59.172;17.196;2022-08-21T13:40:39;100708.34;;;27.40;33.87
61568;BME280;47462;59.172;17.196;2022-08-21T13:43:14;100704.72;;;27.14;31.95
61568;BME280;47462;59.172;17.196;2022-08-21T13:48:19;100699.13;;;27.07;32.43
61568;BME280;47462;59.172;17.196;2022-08-21T13:50:48;100705.16;;;27.27;33.24
61568;BME280;47462;59.172;17.196;2022-08-21T13:56:20;100705.19;;;26.81;33.20
61568;BME280;47462;59.172;17.196;2022-08-21T13:58:54;100690.91;;;26.63;33.58
61568;BME280;47462;59.172;17.196;2022-08-21T14:01:26;100692.25;;;26.77;33.77
61568;BME280;47462;59.172;17.196;2022-08-21T14:03:57;100692.25;;;26.77;34.15
61568;BME280;47462;59.172;17.196;2022-08-21T14:06:26;100691.81;;;26.81;34.67
61568;BME280;47462;59.172;17.196;2022-08-21T14:08:56;100687.69;;;26.59;34.45
61568;BME280;47462;59.172;17.196;2022-08-21T14:11:26;100689.19;;;26.44;34.84
61568;BME280;47462;59.172;17.196;2022-08-21T14:14:03;100677.72;;;26.51;34.47
61568;BME280;47462;59.172;17.196;2022-08-21T14:16:43;100673.78;;;27.19;33.92